sensor_id;sensor_type;location;lat;lon;timestamp;pressure;altitude;pressure_sealevel;temperature;humidity
77778;BME280;66966;-34.746;138.604;2023-04-01T00:00:48;102251.14;;;18.59;30.01
77778;BME280;66966;-34.746;138.604;2023-04-01T00:03:13;102245.74;;;18.65;29.92
77778;BME280;66966;-34.746;138.604;2023-04-01T00:05:39;102241.67;;;18.73;29.71
77778;BME280;66966;-34.746;138.604;2023-04-01T00:08:04;102240.92;;;18.67;29.47
77778;BME280;66966;-34.746;138.604;2023-04-01T00:10:30;102237.92;;;18.01;29.63
77778;BME280;66966;-34.746;138.604;2023-04-01T00:12:55;102233.89;;;18.62;29.62
77778;BME280;66966;-34.746;138.604;2023-04-01T00:15:21;102239.09;;;18.54;29.36
77778;BME280;66966;-34.746;138.604;2023-04-01T00:17:46;102237.65;;;18.80;29.55
77778;BME280;66966;-34.746;138.604;2023-04-01T00:20:12;102234.34;;;18.84;29.18
77778;BME280;66966;-34.746;138.604;2023-04-01T00:22:37;102235.25;;;18.73;29.41
77778;BME280;66966;-34.746;138.604;2023-04-01T00:25:03;102234.46;;;18.89;28.95
77778;BME280;66966;-34.746;138.604;2023-04-01T00:27:29;102231.47;;;18.76;28.93
77778;BME280;66966;-34.746;138.604;2023-04-01T00:29:54;102234.99;;;19.19;28.59
77778;BME280;66966;-34.746;138.604;2023-04-01T00:32:19;102230.69;;;19.35;28.13
77778;BME280;66966;-34.746;138.604;2023-04-01T00:34:45;102234.58;;;19.46;28.25
77778;BME280;66966;-34.746;138.604;2023-04-01T00:37:10;102234.28;;;19.68;27.90
77778;BME280;66966;-34.746;138.604;2023-04-01T00:39:36;102234.06;;;19.21;27.58
77778;BME280;66966;-34.746;138.604;2023-04-01T00:42:02;102230.55;;;19.62;27.55
77778;BME280;66966;-34.746;138.604;2023-04-01T00:44:29;102228.37;;;19.36;27.63
77778;BME280;66966;-34.746;138.604;2023-04-01T00:46:52;102226.44;;;19.32;27.94
77778;BME280;66966;-34.746;138.604;2023-04-01T00:49:19;102230.73;;;19.10;27.78
77778;BME280;66966;-34.746;138.604;2023-04-01T00:51:44;102231.30;;;19.68;27.15
77778;BME280;66966;-34.746;138.604;2023-04-01T00:54:10;102231.84;;;19.57;27.49
77778;BME280;66966;-34.746;138.604;2023-04-01T00:56:36;102229.77;;;19.44;27.26
77778;BME280;66966;-34.746;138.604;2023-04-01T00:59:01;102229.61;;;19.63;26.91
77778;BME280;66966;-34.746;138.604;2023-04-01T01:01:26;102228.15;;;19.75;26.96
77778;BME280;66966;-34.746;138.604;2023-04-01T01:03:51;102226.34;;;19.89;26.83
77778;BME280;66966;-34.746;138.604;2023-04-01T01:06:26;102221.88;;;20.09;26.80
77778;BME280;66966;-34.746;138.604;2023-04-01T01:08:52;102217.41;;;20.15;26.87
77778;BME280;66966;-34.746;138.604;2023-04-01T01:11:09;102213.53;;;20.29;26.46
77778;BME280;66966;-34.746;138.604;2023-04-01T01:13:36;102210.14;;;20.20;25.78
77778;BME280;66966;-34.746;138.604;2023-04-01T01:16:00;102213.02;;;20.36;25.83
77778;BME280;66966;-34.746;138.604;2023-04-01T01:18:29;102219.15;;;20.20;25.96
77778;BME280;66966;-34.746;138.604;2023-04-01T01:25:45;102231.25;;;19.56;26.42
77778;BME280;66966;-34.746;138.604;2023-04-01T01:28:18;102222.99;;;19.52;26.50
77778;BME280;66966;-34.746;138.604;2023-04-01T01:30:42;102229.48;;;19.50;26.86
77778;BME280;66966;-34.746;138.604;2023-04-01T01:33:06;102229.15;;;20.08;26.85
77778;BME280;66966;-34.746;138.604;2023-04-01T01:35:25;102224.79;;;19.76;26.87
77778;BME280;66966;-34.746;138.604;2023-04-01T01:37:48;102215.16;;;20.09;26.85
77778;BME280;66966;-34.746;138.604;2023-04-01T01:40:13;102219.51;;;20.39;27.03
77778;BME280;66966;-34.746;138.604;2023-04-01T01:42:39;102224.05;;;20.74;27.24
77778;BME280;66966;-34.746;138.604;2023-04-01T01:45:05;102219.42;;;20.93;26.29
77778;BME280;66966;-34.746;138.604;2023-04-01T01:47:29;102217.15;;;20.67;25.74
77778;BME280;66966;-34.746;138.604;2023-04-01T01:49:55;102218.91;;;20.98;26.09
77778;BME280;66966;-34.746;138.604;2023-04-01T01:52:20;102212.02;;;21.05;25.17
77778;BME280;66966;-34.746;138.604;2023-04-01T01:54:49;102206.80;;;20.60;25.03
77778;BME280;66966;-34.746;138.604;2023-04-01T01:57:10;102206.69;;;20.64;25.12
77778;BME280;66966;-34.746;138.604;2023-04-01T01:59:37;102205.33;;;20.79;25.21
77778;BME280;66966;-34.746;138.604;2023-04-01T02:02:02;102205.54;;;20.94;24.77
77778;BME280;66966;-34.746;138.604;2023-04-01T02:04:27;102201.62;;;21.38;25.33
77778;BME280;66966;-34.746;138.604;2023-04-01T02:06:55;102197.34;;;21.15;24.90
77778;BME280;66966;-34.746;138.604;2023-04-01T02:09:17;102191.27;;;21.19;25.16
77778;BME280;66966;-34.746;138.604;2023-04-01T02:11:46;102194.12;;;21.29;25.25
77778;BME280;66966;-34.746;138.604;2023-04-01T02:14:11;102192.64;;;21.30;24.90
77778;BME280;66966;-34.746;138.604;2023-04-01T02:16:38;102187.09;;;21.19;24.83
77778;BME280;66966;-34.746;138.604;2023-04-01T02:18:59;102177.27;;;21.43;24.46
77778;BME280;66966;-34.746;138.604;2023-04-01T02:21:26;102176.79;;;21.80;24.59
77778;BME280;66966;-34.746;138.604;2023-04-01T02:23:50;102175.65;;;21.78;24.09
77778;BME280;66966;-34.746;138.604;2023-04-01T02:26:15;102172.43;;;21.68;24.48
77778;BME280;66966;-34.746;138.604;2023-04-01T02:28:42;102171.67;;;21.76;24.51
77778;BME280;66966;-34.746;138.604;2023-04-01T02:31:06;102169.40;;;21.94;24.00
77778;BME280;66966;-34.746;138.604;2023-04-01T02:33:31;102160.53;;;21.58;23.73
77778;BME280;66966;-34.746;138.604;2023-04-01T02:35:56;102163.43;;;21.42;23.86
77778;BME280;66966;-34.746;138.604;2023-04-01T02:38:22;102162.23;;;21.57;23.83
77778;BME280;66966;-34.746;138.604;2023-04-01T02:40:50;102164.81;;;21.77;23.35
77778;BME280;66966;-34.746;138.604;2023-04-01T02:43:12;102158.98;;;21.63;23.91
77778;BME280;66966;-34.746;138.604;2023-04-01T02:45:38;102153.16;;;21.75;23.57
77778;BME280;66966;-34.746;138.604;2023-04-01T02:48:04;102148.09;;;21.99;22.31
77778;BME280;66966;-34.746;138.604;2023-04-01T02:50:29;102147.96;;;21.24;23.38
77778;BME280;66966;-34.746;138.604;2023-04-01T02:52:54;102144.82;;;21.44;22.76
77778;BME280;66966;-34.746;138.604;2023-04-01T02:55:19;102141.29;;;21.79;23.33
77778;BME280;66966;-34.746;138.604;2023-04-01T02:57:45;102139.12;;;21.58;23.24
77778;BME280;66966;-34.746;138.604;2023-04-01T03:00:11;102134.45;;;21.64;23.05
77778;BME280;66966;-34.746;138.604;2023-04-01T03:02:35;102134.78;;;21.88;22.57
77778;BME280;66966;-34.746;138.604;2023-04-01T03:05:01;102131.44;;;21.77;22.50
77778;BME280;66966;-34.746;138.604;2023-04-01T03:07:26;102127.71;;;21.65;22.47
77778;BME280;66966;-34.746;138.604;2023-04-01T03:09:52;102126.37;;;21.60;22.80
77778;BME280;66966;-34.746;138.604;2023-04-01T03:12:17;102123.37;;;21.63;23.15
77778;BME280;66966;-34.746;138.604;2023-04-01T03:14:42;102121.30;;;21.29;22.93
77778;BME280;66966;-34.746;138.604;2023-04-01T03:17:08;102114.65;;;21.46;23.09
77778;BME280;66966;-34.746;138.604;2023-04-01T03:19:33;102113.47;;;20.94;23.67
77778;BME280;66966;-34.746;138.604;2023-04-01T03:21:59;102110.41;;;21.19;23.44
77778;BME280;66966;-34.746;138.604;2023-04-01T03:24:24;102112.33;;;21.53;23.20
77778;BME280;66966;-34.746;138.604;2023-04-01T03:26:49;102108.48;;;21.14;23.07
77778;BME280;66966;-34.746;138.604;2023-04-01T03:29:15;102108.16;;;21.32;23.19
77778;BME280;66966;-34.746;138.604;2023-04-01T03:31:40;102108.05;;;21.36;23.14
77778;BME280;66966;-34.746;138.604;2023-04-01T03:34:06;102105.69;;;21.47;23.40
77778;BME280;66966;-34.746;138.604;2023-04-01T03:36:31;102102.41;;;21.19;23.03
77778;BME280;66966;-34.746;138.604;2023-04-01T03:38:56;102099.44;;;21.53;23.04
77778;BME280;66966;-34.746;138.604;2023-04-01T03:41:22;102091.99;;;21.67;22.85
77778;BME280;66966;-34.746;138.604;2023-04-01T03:43:47;102086.13;;;21.78;22.56
77778;BME280;66966;-34.746;138.604;2023-04-01T03:46:18;102085.19;;;22.11;23.07
77778;BME280;66966;-34.746;138.604;2023-04-01T03:48:38;102089.07;;;22.07;22.88
77778;BME280;66966;-34.746;138.604;2023-04-01T03:51:07;102086.58;;;22.24;22.24
77778;BME280;66966;-34.746;138.604;2023-04-01T03:53:29;102084.66;;;22.41;22.50
77778;BME280;66966;-34.746;138.604;2023-04-01T03:55:54;102085.52;;;22.09;21.66
77778;BME280;66966;-34.746;138.604;2023-04-01T03:58:20;102082.45;;;21.84;21.70
77778;BME280;66966;-34.746;138.604;2023-04-01T04:00:45;102074.30;;;21.83;22.47
77778;BME280;66966;-34.746;138.604;2023-04-01T04:03:10;102076.03;;;22.02;22.90
77778;BME280;66966;-34.746;138.604;2023-04-01T04:05:36;102081.11;;;21.64;22.14
77778;BME280;66966;-34.746;138.604;2023-04-01T04:08:01;102076.79;;;21.92;22.21
77778;BME280;66966;-34.746;138.604;2023-04-01T04:10:27;102072.65;;;21.99;22.03
77778;BME280;66966;-34.746;138.604;2023-04-01T04:12:52;102066.98;;;22.25;22.34
77778;BME280;66966;-34.746;138.604;2023-04-01T04:15:17;102063.51;;;22.36;22.68
77778;BME280;66966;-34.746;138.604;2023-04-01T04:17:44;102062.12;;;22.18;22.48
77778;BME280;66966;-34.746;138.604;2023-04-01T04:20:09;102059.28;;;22.18;22.58
77778;BME280;66966;-34.746;138.604;2023-04-01T04:22:33;102057.59;;;22.55;22.39
77778;BME280;66966;-34.746;138.604;2023-04-01T04:24:58;102058.72;;;22.30;22.40
77778;BME280;66966;-34.746;138.604;2023-04-01T04:27:24;102055.47;;;22.36;21.82
77778;BME280;66966;-34.746;138.604;2023-04-01T04:29:50;102049.45;;;22.38;21.47
77778;BME280;66966;-34.746;138.604;2023-04-01T04:32:15;102046.91;;;22.37;21.75
77778;BME280;66966;-34.746;138.604;2023-04-01T04:34:40;102046.12;;;22.39;21.78
77778;BME280;66966;-34.746;138.604;2023-04-01T04:37:05;102044.45;;;22.45;21.90
77778;BME280;66966;-34.746;138.604;2023-04-01T04:39:31;102044.64;;;22.31;21.72
77778;BME280;66966;-34.746;138.604;2023-04-01T04:41:56;102043.06;;;22.55;21.48
77778;BME280;66966;-34.746;138.604;2023-04-01T04:44:21;102035.75;;;22.77;21.38
77778;BME280;66966;-34.746;138.604;2023-04-01T04:46:47;102033.00;;;23.11;20.36
77778;BME280;66966;-34.746;138.604;2023-04-01T04:49:12;102021.22;;;23.29;19.48
77778;BME280;66966;-34.746;138.604;2023-04-01T04:51:37;102018.58;;;23.02;19.30
77778;BME280;66966;-34.746;138.604;2023-04-01T04:54:04;102018.81;;;23.34;20.17
77778;BME280;66966;-34.746;138.604;2023-04-01T04:56:28;102020.53;;;23.17;19.80
77778;BME280;66966;-34.746;138.604;2023-04-01T04:58:54;102020.44;;;23.34;20.17
77778;BME280;66966;-34.746;138.604;2023-04-01T05:01:19;102023.22;;;22.94;20.48
77778;BME280;66966;-34.746;138.604;2023-04-01T05:03:44;102025.68;;;22.66;20.48
77778;BME280;66966;-34.746;138.604;2023-04-01T05:06:11;102024.23;;;22.82;21.02
77778;BME280;66966;-34.746;138.604;2023-04-01T05:08:36;102028.74;;;22.50;20.88
77778;BME280;66966;-34.746;138.604;2023-04-01T05:11:01;102023.98;;;22.31;20.78
77778;BME280;66966;-34.746;138.604;2023-04-01T05:13:26;102020.85;;;22.74;20.68
77778;BME280;66966;-34.746;138.604;2023-04-01T05:15:51;102017.76;;;22.46;20.81
77778;BME280;66966;-34.746;138.604;2023-04-01T05:18:16;102012.91;;;22.48;20.55
77778;BME280;66966;-34.746;138.604;2023-04-01T05:20:46;102020.11;;;22.44;20.60
77778;BME280;66966;-34.746;138.604;2023-04-01T05:23:07;102020.22;;;22.51;20.77
77778;BME280;66966;-34.746;138.604;2023-04-01T05:25:32;102017.60;;;22.24;21.30
77778;BME280;66966;-34.746;138.604;2023-04-01T05:27:58;102012.64;;;22.50;21.14
77778;BME280;66966;-34.746;138.604;2023-04-01T05:30:23;102014.65;;;22.49;21.08
77778;BME280;66966;-34.746;138.604;2023-04-01T05:32:49;102016.09;;;22.65;21.28
77778;BME280;66966;-34.746;138.604;2023-04-01T05:35:14;102012.04;;;22.74;20.66
77778;BME280;66966;-34.746;138.604;2023-04-01T05:37:39;102009.20;;;22.98;20.53
77778;BME280;66966;-34.746;138.604;2023-04-01T05:40:05;102011.23;;;22.92;20.57
77778;BME280;66966;-34.746;138.604;2023-04-01T05:42:30;102003.68;;;22.50;20.40
77778;BME280;66966;-34.746;138.604;2023-04-01T05:44:55;102004.10;;;22.52;20.28
77778;BME280;66966;-34.746;138.604;2023-04-01T05:47:20;102006.58;;;22.58;20.58
77778;BME280;66966;-34.746;138.604;2023-04-01T05:49:46;102006.35;;;22.41;20.55
77778;BME280;66966;-34.746;138.604;2023-04-01T05:52:11;102017.74;;;22.58;21.03
77778;BME280;66966;-34.746;138.604;2023-04-01T05:54:36;102014.19;;;22.09;21.03
77778;BME280;66966;-34.746;138.604;2023-04-01T05:57:02;102011.78;;;22.16;21.11
77778;BME280;66966;-34.746;138.604;2023-04-01T05:59:27;102009.55;;;22.13;21.02
77778;BME280;66966;-34.746;138.604;2023-04-01T06:01:53;102012.69;;;21.99;21.04
77778;BME280;66966;-34.746;138.604;2023-04-01T06:04:19;102009.49;;;21.98;21.15
77778;BME280;66966;-34.746;138.604;2023-04-01T06:06:44;102019.56;;;22.04;21.32
77778;BME280;66966;-34.746;138.604;2023-04-01T06:09:15;102013.48;;;22.10;20.63
77778;BME280;66966;-34.746;138.604;2023-04-01T06:11:39;102016.47;;;22.26;21.17
77778;BME280;66966;-34.746;138.604;2023-04-01T06:14:09;102016.27;;;22.73;21.11
77778;BME280;66966;-34.746;138.604;2023-04-01T06:16:31;102012.57;;;23.23;21.04
77778;BME280;66966;-34.746;138.604;2023-04-01T06:19:01;102018.02;;;23.32;20.29
77778;BME280;66966;-34.746;138.604;2023-04-01T06:21:25;102011.89;;;23.67;19.61
77778;BME280;66966;-34.746;138.604;2023-04-01T06:23:51;102019.37;;;23.32;19.62
77778;BME280;66966;-34.746;138.604;2023-04-01T06:26:14;102018.78;;;23.16;20.01
77778;BME280;66966;-34.746;138.604;2023-04-01T06:28:56;102015.75;;;22.93;19.72
77778;BME280;66966;-34.746;138.604;2023-04-01T06:31:02;102014.89;;;22.96;20.00
77778;BME280;66966;-34.746;138.604;2023-04-01T06:33:33;102019.19;;;22.85;20.42
77778;BME280;66966;-34.746;138.604;2023-04-01T06:36:00;102019.26;;;22.74;20.73
77778;BME280;66966;-34.746;138.604;2023-04-01T06:38:26;102016.42;;;23.00;20.94
77778;BME280;66966;-34.746;138.604;2023-04-01T06:40:50;102018.26;;;23.01;20.72
77778;BME280;66966;-34.746;138.604;2023-04-01T06:43:12;102018.82;;;23.07;20.03
77778;BME280;66966;-34.746;138.604;2023-04-01T06:45:35;102019.86;;;22.95;20.58
77778;BME280;66966;-34.746;138.604;2023-04-01T06:48:04;102019.33;;;22.92;20.29
77778;BME280;66966;-34.746;138.604;2023-04-01T06:50:26;102020.31;;;22.66;20.77
77778;BME280;66966;-34.746;138.604;2023-04-01T06:52:52;102016.79;;;22.83;20.72
77778;BME280;66966;-34.746;138.604;2023-04-01T06:55:23;102021.59;;;22.66;20.84
77778;BME280;66966;-34.746;138.604;2023-04-01T06:57:41;102022.82;;;22.33;21.34
77778;BME280;66966;-34.746;138.604;2023-04-01T07:00:03;102026.05;;;22.51;20.94
77778;BME280;66966;-34.746;138.604;2023-04-01T07:02:34;102025.65;;;22.55;20.31
77778;BME280;66966;-34.746;138.604;2023-04-01T07:04:53;102021.49;;;22.14;20.25
77778;BME280;66966;-34.746;138.604;2023-04-01T07:07:26;102020.37;;;22.09;20.40
77778;BME280;66966;-34.746;138.604;2023-04-01T07:09:46;102021.34;;;21.99;20.31
77778;BME280;66966;-34.746;138.604;2023-04-01T07:12:15;102024.96;;;21.72;20.19
77778;BME280;66966;-34.746;138.604;2023-04-01T07:14:36;102024.08;;;21.65;20.49
77778;BME280;66966;-34.746;138.604;2023-04-01T07:17:02;102025.19;;;22.07;20.53
77778;BME280;66966;-34.746;138.604;2023-04-01T07:19:29;102028.23;;;21.52;20.41
77778;BME280;66966;-34.746;138.604;2023-04-01T07:21:52;102024.28;;;21.85;20.52
77778;BME280;66966;-34.746;138.604;2023-04-01T07:24:21;102026.04;;;21.79;20.60
77778;BME280;66966;-34.746;138.604;2023-04-01T07:26:40;102027.36;;;21.41;21.05
77778;BME280;66966;-34.746;138.604;2023-04-01T07:29:12;102026.77;;;21.70;21.29
77778;BME280;66966;-34.746;138.604;2023-04-01T07:31:43;102028.14;;;21.26;20.76
77778;BME280;66966;-34.746;138.604;2023-04-01T07:34:03;102032.10;;;21.69;20.53
77778;BME280;66966;-34.746;138.604;2023-04-01T07:36:26;102032.00;;;21.48;20.29
77778;BME280;66966;-34.746;138.604;2023-04-01T07:38:54;102039.85;;;21.34;20.48
77778;BME280;66966;-34.746;138.604;2023-04-01T07:41:18;102041.85;;;21.28;20.61
77778;BME280;66966;-34.746;138.604;2023-04-01T07:46:11;102050.80;;;21.34;21.37
77778;BME280;66966;-34.746;138.604;2023-04-01T07:48:33;102053.63;;;21.05;21.62
77778;BME280;66966;-34.746;138.604;2023-04-01T07:51:00;102053.46;;;21.17;21.50
77778;BME280;66966;-34.746;138.604;2023-04-01T07:53:24;102050.38;;;20.89;21.61
77778;BME280;66966;-34.746;138.604;2023-04-01T07:55:51;102055.61;;;21.07;21.81
77778;BME280;66966;-34.746;138.604;2023-04-01T07:58:16;102061.16;;;20.82;21.90
77778;BME280;66966;-34.746;138.604;2023-04-01T08:00:42;102064.99;;;20.81;21.99
77778;BME280;66966;-34.746;138.604;2023-04-01T08:03:13;102066.61;;;20.76;21.88
77778;BME280;66966;-34.746;138.604;2023-04-01T08:05:29;102074.18;;;21.15;22.08
77778;BME280;66966;-34.746;138.604;2023-04-01T08:07:58;102077.04;;;20.60;22.03
77778;BME280;66966;-34.746;138.604;2023-04-01T08:10:21;102076.84;;;20.53;21.84
77778;BME280;66966;-34.746;138.604;2023-04-01T08:12:50;102077.84;;;20.83;21.84
77778;BME280;66966;-34.746;138.604;2023-04-01T08:15:15;102078.64;;;20.81;21.82
77778;BME280;66966;-34.746;138.604;2023-04-01T08:17:40;102081.01;;;20.60;21.61
77778;BME280;66966;-34.746;138.604;2023-04-01T08:20:12;102084.85;;;20.75;21.78
77778;BME280;66966;-34.746;138.604;2023-04-01T08:22:28;102086.79;;;20.53;21.83
77778;BME280;66966;-34.746;138.604;2023-04-01T08:24:52;102088.26;;;20.59;21.81
77778;BME280;66966;-34.746;138.604;2023-04-01T08:27:20;102088.44;;;20.31;21.83
77778;BME280;66966;-34.746;138.604;2023-04-01T08:29:46;102093.58;;;19.67;21.54
77778;BME280;66966;-34.746;138.604;2023-04-01T08:32:11;102093.77;;;20.56;21.32
77778;BME280;66966;-34.746;138.604;2023-04-01T08:34:36;102095.07;;;19.98;21.47
77778;BME280;66966;-34.746;138.604;2023-04-01T08:37:03;102095.20;;;20.23;21.74
77778;BME280;66966;-34.746;138.604;2023-04-01T08:39:29;102094.18;;;20.23;21.75
77778;BME280;66966;-34.746;138.604;2023-04-01T08:44:32;102101.60;;;19.97;22.10
77778;BME280;66966;-34.746;138.604;2023-04-01T08:49:15;102103.51;;;19.99;22.23
77778;BME280;66966;-34.746;138.604;2023-04-01T08:51:45;102106.33;;;19.89;22.24
77778;BME280;66966;-34.746;138.604;2023-04-01T08:56:25;102110.06;;;19.75;22.06
77778;BME280;66966;-34.746;138.604;2023-04-01T08:58:55;102112.67;;;19.77;22.19
77778;BME280;66966;-34.746;138.604;2023-04-01T09:01:23;102114.92;;;19.44;22.35
77778;BME280;66966;-34.746;138.604;2023-04-01T09:03:46;102113.52;;;19.63;22.42
77778;BME280;66966;-34.746;138.604;2023-04-01T09:08:41;102117.71;;;19.23;22.70
77778;BME280;66966;-34.746;138.604;2023-04-01T09:11:04;102119.93;;;19.64;22.92
77778;BME280;66966;-34.746;138.604;2023-04-01T09:13:31;102123.18;;;19.30;23.02
77778;BME280;66966;-34.746;138.604;2023-04-01T09:15:59;102126.19;;;18.98;23.19
77778;BME280;66966;-34.746;138.604;2023-04-01T09:20:48;102135.51;;;18.86;23.47
77778;BME280;66966;-34.746;138.604;2023-04-01T09:23:13;102138.05;;;19.06;23.59
77778;BME280;66966;-34.746;138.604;2023-04-01T09:25:39;102138.46;;;19.26;23.74
77778;BME280;66966;-34.746;138.604;2023-04-01T09:28:00;102142.17;;;19.19;23.90
77778;BME280;66966;-34.746;138.604;2023-04-01T09:32:55;102149.30;;;18.94;23.97
77778;BME280;66966;-34.746;138.604;2023-04-01T09:35:21;102149.84;;;18.79;24.06
77778;BME280;66966;-34.746;138.604;2023-04-01T09:37:40;102151.83;;;18.72;24.12
77778;BME280;66966;-34.746;138.604;2023-04-01T09:40:14;102155.76;;;18.61;24.32
77778;BME280;66966;-34.746;138.604;2023-04-01T09:44:57;102167.61;;;18.38;24.49
77778;BME280;66966;-34.746;138.604;2023-04-01T09:47:27;102170.68;;;18.29;24.56
77778;BME280;66966;-34.746;138.604;2023-04-01T09:52:23;102178.87;;;18.17;24.95
77778;BME280;66966;-34.746;138.604;2023-04-01T09:54:47;102183.16;;;18.36;25.20
77778;BME280;66966;-34.746;138.604;2023-04-01T10:06:52;102196.81;;;17.99;26.32
77778;BME280;66966;-34.746;138.604;2023-04-01T10:14:11;102203.04;;;18.30;26.89
77778;BME280;66966;-34.746;138.604;2023-04-01T10:16:35;102207.84;;;18.31;26.98
77778;BME280;66966;-34.746;138.604;2023-04-01T10:21:27;102210.16;;;17.96;27.29
77778;BME280;66966;-34.746;138.604;2023-04-01T10:28:38;102213.40;;;17.57;27.65
77778;BME280;66966;-34.746;138.604;2023-04-01T10:38:22;102215.33;;;17.88;28.05
77778;BME280;66966;-34.746;138.604;2023-04-01T10:55:21;102223.03;;;17.50;28.71
77778;BME280;66966;-34.746;138.604;2023-04-01T11:12:19;102224.22;;;17.61;29.32
77778;BME280;66966;-34.746;138.604;2023-04-01T11:26:54;102222.18;;;16.74;30.04
77778;BME280;66966;-34.746;138.604;2023-04-01T11:34:11;102229.58;;;16.72;30.28
77778;BME280;66966;-34.746;138.604;2023-04-01T11:36:37;102227.28;;;17.11;30.39
77778;BME280;66966;-34.746;138.604;2023-04-01T11:39:03;102226.11;;;17.02;30.54
77778;BME280;66966;-34.746;138.604;2023-04-01T11:41:27;102229.84;;;16.76;30.73
77778;BME280;66966;-34.746;138.604;2023-04-01T11:43:52;102229.74;;;16.73;30.70
77778;BME280;66966;-34.746;138.604;2023-04-01T11:46:14;102233.14;;;16.46;30.82
77778;BME280;66966;-34.746;138.604;2023-04-01T11:48:45;102231.34;;;16.89;30.98
77778;BME280;66966;-34.746;138.604;2023-04-01T11:53:36;102229.27;;;16.76;31.14
77778;BME280;66966;-34.746;138.604;2023-04-01T11:56:00;102228.13;;;16.75;31.18
77778;BME280;66966;-34.746;138.604;2023-04-01T11:58:26;102228.07;;;16.69;31.31
77778;BME280;66966;-34.746;138.604;2023-04-01T12:03:26;102232.22;;;16.62;31.39
77778;BME280;66966;-34.746;138.604;2023-04-01T12:05:42;102234.89;;;16.35;31.52
77778;BME280;66966;-34.746;138.604;2023-04-01T12:08:11;102234.72;;;16.51;31.62
77778;BME280;66966;-34.746;138.604;2023-04-01T12:10:31;102236.37;;;16.42;31.88
77778;BME280;66966;-34.746;138.604;2023-04-01T12:12:59;102233.99;;;16.59;32.01
77778;BME280;66966;-34.746;138.604;2023-04-01T12:15:21;102231.38;;;16.25;32.17
77778;BME280;66966;-34.746;138.604;2023-04-01T12:17:48;102233.29;;;16.19;32.22
77778;BME280;66966;-34.746;138.604;2023-04-01T12:22:45;102235.99;;;15.80;32.49
77778;BME280;66966;-34.746;138.604;2023-04-01T12:25:11;102234.46;;;16.24;32.46
77778;BME280;66966;-34.746;138.604;2023-04-01T12:27:34;102235.88;;;15.96;32.61
77778;BME280;66966;-34.746;138.604;2023-04-01T12:32:23;102238.10;;;15.79;32.86
77778;BME280;66966;-34.746;138.604;2023-04-01T12:34:50;102238.46;;;16.21;32.94
77778;BME280;66966;-34.746;138.604;2023-04-01T12:37:13;102237.22;;;15.68;33.11
77778;BME280;66966;-34.746;138.604;2023-04-01T12:39:42;102238.24;;;15.60;33.13
77778;BME280;66966;-34.746;138.604;2023-04-01T12:42:07;102240.88;;;15.77;33.23
77778;BME280;66966;-34.746;138.604;2023-04-01T12:44:38;102240.49;;;15.68;33.31
77778;BME280;66966;-34.746;138.604;2023-04-01T12:47:04;102238.87;;;15.88;33.41
77778;BME280;66966;-34.746;138.604;2023-04-01T12:56:40;102233.20;;;15.24;33.71
77778;BME280;66966;-34.746;138.604;2023-04-01T13:03:58;102228.95;;;15.58;33.93
77778;BME280;66966;-34.746;138.604;2023-04-01T13:06:24;102225.69;;;15.56;33.95
77778;BME280;66966;-34.746;138.604;2023-04-01T13:08:46;102223.78;;;15.52;33.97
77778;BME280;66966;-34.746;138.604;2023-04-01T13:11:16;102222.18;;;15.53;33.99
77778;BME280;66966;-34.746;138.604;2023-04-01T13:13:45;102218.01;;;15.06;34.00
77778;BME280;66966;-34.746;138.604;2023-04-01T13:16:01;102213.86;;;15.52;34.01
77778;BME280;66966;-34.746;138.604;2023-04-01T13:18:30;102214.78;;;15.28;33.99
77778;BME280;66966;-34.746;138.604;2023-04-01T13:20:57;102213.28;;;15.46;34.23
77778;BME280;66966;-34.746;138.604;2023-04-01T13:23:27;102211.46;;;15.45;34.17
77778;BME280;66966;-34.746;138.604;2023-04-01T13:25:45;102208.78;;;15.43;34.15
77778;BME280;66966;-34.746;138.604;2023-04-01T13:28:12;102209.34;;;15.45;34.09
77778;BME280;66966;-34.746;138.604;2023-04-01T13:30:34;102207.12;;;14.96;34.15
77778;BME280;66966;-34.746;138.604;2023-04-01T13:33:01;102206.05;;;15.50;34.13
77778;BME280;66966;-34.746;138.604;2023-04-01T13:35:31;102202.27;;;15.48;34.13
77778;BME280;66966;-34.746;138.604;2023-04-01T13:37:57;102203.02;;;15.42;34.12
77778;BME280;66966;-34.746;138.604;2023-04-01T13:40:26;102199.80;;;15.33;34.36
77778;BME280;66966;-34.746;138.604;2023-04-01T13:42:45;102199.41;;;15.27;34.43
77778;BME280;66966;-34.746;138.604;2023-04-01T13:45:12;102194.18;;;15.23;34.47
77778;BME280;66966;-34.746;138.604;2023-04-01T13:50:08;102188.93;;;15.30;34.53
77778;BME280;66966;-34.746;138.604;2023-04-01T13:52:35;102186.36;;;15.35;34.38
77778;BME280;66966;-34.746;138.604;2023-04-01T13:57:27;102185.24;;;15.37;34.38
77778;BME280;66966;-34.746;138.604;2023-04-01T13:59:50;102181.37;;;15.36;34.39
77778;BME280;66966;-34.746;138.604;2023-04-01T14:02:18;102179.88;;;15.41;34.40
77778;BME280;66966;-34.746;138.604;2023-04-01T14:04:43;102176.14;;;15.19;34.49
77778;BME280;66966;-34.746;138.604;2023-04-01T14:07:06;102174.99;;;15.49;34.42
77778;BME280;66966;-34.746;138.604;2023-04-01T14:09:37;102175.00;;;15.76;34.43
77778;BME280;66966;-34.746;138.604;2023-04-01T14:11:55;102172.50;;;15.51;34.47
77778;BME280;66966;-34.746;138.604;2023-04-01T14:14:21;102167.31;;;15.50;34.45
77778;BME280;66966;-34.746;138.604;2023-04-01T14:19:11;102165.00;;;15.47;34.75
77778;BME280;66966;-34.746;138.604;2023-04-01T14:21:37;102164.77;;;15.44;34.84